Time;durP1;ratioP1;P1;durP2;ratioP2;P2;SDS_P1;SDS_P2;PMS_P1;PMS_P2;Temp;Humidity;BMP_temperature;BMP_pressure;BME280_temperature;BME280_humidity;BME280_pressure;Samples;Min_cycle;Max_cycle;Signal;HPM_P1;HPM_P2
2022/12/18 00:02:06;;;;;;;48.90;19.00;;;;;;;-5.72;100.00;101176.38;4194000;28;20331;-67
2022/12/18 00:04:33;;;;;;;46.33;19.53;;;;;;;-5.72;100.00;101175.53;4198914;28;20244;-66
2022/12/18 00:06:59;;;;;;;53.07;19.93;;;;;;;-5.67;100.00;101181.50;4199188;28;23328;-68
2022/12/18 00:09:26;;;;;;;53.87;19.80;;;;;;;-5.72;100.00;101185.88;4194543;28;20235;-70
2022/12/18 00:12:05;;;;;;;48.83;18.87;;;;;;;-5.64;100.00;101190.94;4193673;28;21188;-69
2022/12/18 00:14:41;;;;;;;51.20;20.30;;;;;;;-5.67;100.00;101189.25;4196599;28;20307;-70
2022/12/18 00:17:08;;;;;;;53.97;20.00;;;;;;;-5.49;100.00;101190.72;4195949;28;20426;-70
2022/12/18 00:19:34;;;;;;;47.90;19.90;;;;;;;-5.47;100.00;101190.72;4193582;28;25555;-68
2022/12/18 00:22:01;;;;;;;52.83;18.77;;;;;;;-5.41;100.00;101200.97;4194816;28;20334;-67
2022/12/18 00:24:27;;;;;;;49.03;19.07;;;;;;;-5.45;100.00;101201.91;4203545;28;20241;-68
2022/12/18 00:26:53;;;;;;;46.80;19.73;;;;;;;-5.40;100.00;101202.69;4198006;28;20936;-70
2022/12/18 00:29:20;;;;;;;52.93;19.27;;;;;;;-5.39;100.00;101200.06;4195409;28;20263;-67
2022/12/18 00:31:46;;;;;;;45.73;18.23;;;;;;;-5.24;100.00;101209.34;4202053;28;20240;-67
2022/12/18 00:34:13;;;;;;;49.87;20.30;;;;;;;-5.21;100.00;101214.47;4198328;28;20236;-71
2022/12/18 00:36:40;;;;;;;54.90;20.30;;;;;;;-5.35;100.00;101212.09;4199750;28;20240;-67
2022/12/18 00:39:07;;;;;;;48.17;19.27;;;;;;;-5.33;100.00;101223.31;4203323;28;21094;-69
2022/12/18 00:44:19;;;;;;;51.30;18.67;;;;;;;-5.26;100.00;101218.03;4199488;28;20287;-71
2022/12/18 00:46:47;;;;;;;55.53;19.90;;;;;;;-5.36;100.00;101238.06;4210662;28;21347;-68
2022/12/18 00:49:14;;;;;;;50.53;18.43;;;;;;;-5.25;100.00;101235.28;4199272;28;20304;-67
2022/12/18 00:51:41;;;;;;;52.80;19.40;;;;;;;-5.20;100.00;101234.31;4193253;28;20236;-68
2022/12/18 00:54:08;;;;;;;46.27;19.00;;;;;;;-5.24;100.00;101242.22;4201389;28;20250;-68
2022/12/18 00:56:38;;;;;;;51.23;19.13;;;;;;;-5.24;100.00;101242.22;4195996;28;20244;-69
2022/12/18 00:59:14;;;;;;;50.80;19.30;;;;;;;-5.35;100.00;101240.63;4194567;28;20237;-66
2022/12/18 01:01:40;;;;;;;47.23;19.03;;;;;;;-5.26;100.00;101241.38;4194945;28;20228;-67
2022/12/18 01:04:07;;;;;;;51.40;18.63;;;;;;;-5.27;100.00;101245.69;4196746;28;20312;-69
2022/12/18 01:06:34;;;;;;;54.83;19.23;;;;;;;-5.39;100.00;101248.47;4192977;28;20256;-68
2022/12/18 01:09:00;;;;;;;48.43;18.90;;;;;;;-5.49;100.00;101240.00;4192852;28;20331;-66
2022/12/18 01:11:27;;;;;;;52.30;19.20;;;;;;;-5.47;100.00;101250.34;4203463;28;20306;-67
2022/12/18 01:13:54;;;;;;;56.27;19.70;;;;;;;-5.54;100.00;101254.78;4193623;28;21631;-66
2022/12/18 01:16:21;;;;;;;55.30;19.63;;;;;;;-5.40;100.00;101258.00;4193359;28;22522;-65
2022/12/18 01:18:51;;;;;;;57.83;19.57;;;;;;;-5.39;100.00;101259.72;4193365;28;20243;-67
2022/12/18 01:21:18;;;;;;;58.47;18.90;;;;;;;-5.52;100.00;101264.25;4192770;28;20319;-69
2022/12/18 01:23:44;;;;;;;57.43;19.57;;;;;;;-5.44;100.00;101271.03;4204896;28;23106;-68
2022/12/18 01:26:14;;;;;;;50.90;18.83;;;;;;;-5.36;100.00;101270.06;4197189;28;20934;-67
2022/12/18 01:28:41;;;;;;;53.33;19.07;;;;;;;-5.36;100.00;101264.00;4199894;28;20341;-66
2022/12/18 01:31:28;;;;;;;51.93;17.90;;;;;;;-5.34;100.00;101267.41;4229551;28;23943;-68
2022/12/18 01:33:56;;;;;;;46.87;17.53;;;;;;;-5.52;100.00;101281.53;4209448;28;20621;-65
2022/12/18 01:36:28;;;;;;;48.10;17.50;;;;;;;-5.33;100.00;101282.13;4196802;28;20242;-66
2022/12/18 01:38:55;;;;;;;49.93;17.10;;;;;;;-5.34;100.00;101290.75;4246648;28;21304;-66
2022/12/18 01:41:24;;;;;;;48.97;16.97;;;;;;;-5.37;100.00;101293.41;4197121;28;23693;-65
2022/12/18 01:43:54;;;;;;;50.83;17.83;;;;;;;-5.41;100.00;101296.91;4197004;28;20228;-66
2022/12/18 01:46:22;;;;;;;51.90;17.77;;;;;;;-5.53;100.00;101298.81;4193374;28;20257;-64
2022/12/18 01:48:51;;;;;;;47.23;18.30;;;;;;;-5.56;100.00;101298.00;4206433;28;20320;-66
2022/12/18 01:51:17;;;;;;;57.17;18.30;;;;;;;-5.61;100.00;101298.06;4201119;28;20240;-66
2022/12/18 01:53:45;;;;;;;56.23;17.87;;;;;;;-5.54;100.00;101302.28;4195570;28;20307;-66
2022/12/18 01:56:14;;;;;;;53.33;18.13;;;;;;;-5.49;100.00;101301.38;4195685;28;21251;-65
2022/12/18 01:58:58;;;;;;;55.23;17.63;;;;;;;-5.51;100.00;101302.25;4197717;28;20991;-65
2022/12/18 02:01:25;;;;;;;58.33;19.20;;;;;;;-5.45;100.00;101311.69;4193592;28;20803;-64
2022/12/18 02:03:52;;;;;;;54.63;17.73;;;;;;;-5.44;100.00;101315.13;4190577;28;23554;-67
2022/12/18 02:06:49;;;;;;;56.03;18.20;;;;;;;-5.54;100.00;101319.59;4199653;28;20712;-66
2022/12/18 02:09:22;;;;;;;51.30;16.27;;;;;;;-5.57;100.00;101317.91;4204598;28;21596;-64
2022/12/18 02:11:56;;;;;;;52.40;18.00;;;;;;;-5.54;100.00;101323.03;4195865;28;21164;-65
2022/12/18 02:14:59;;;;;;;53.37;17.60;;;;;;;-5.49;100.00;101332.50;4205127;28;21075;-64
2022/12/18 02:17:33;;;;;;;47.70;17.83;;;;;;;-5.36;100.00;101334.91;4202061;28;20254;-66
2022/12/18 02:20:16;;;;;;;52.33;18.60;;;;;;;-5.35;100.00;101339.19;4201371;28;20248;-65
2022/12/18 02:23:04;;;;;;;56.93;18.67;;;;;;;-5.37;100.00;101345.28;4206690;28;23414;-68
2022/12/18 02:25:55;;;;;;;53.43;17.97;;;;;;;-5.42;100.00;101354.88;4198697;28;21810;-63
2022/12/18 02:28:26;;;;;;;51.97;19.00;;;;;;;-5.38;100.00;101349.63;4209175;28;20657;-67
2022/12/18 02:30:53;;;;;;;51.17;17.30;;;;;;;-5.34;100.00;101350.41;4199030;28;20303;-67
2022/12/18 02:33:20;;;;;;;48.93;17.63;;;;;;;-5.30;100.00;101354.69;4191873;28;20267;-69
2022/12/18 02:35:48;;;;;;;52.23;18.03;;;;;;;-5.30;100.00;101362.47;4196795;28;20259;-67
2022/12/18 02:38:15;;;;;;;54.53;17.90;;;;;;;-5.16;100.00;101363.13;4208605;28;23011;-63
2022/12/18 02:40:42;;;;;;;54.93;18.70;;;;;;;-5.17;100.00;101366.63;4193659;28;20435;-64
2022/12/18 02:43:11;;;;;;;54.37;19.43;;;;;;;-5.20;100.00;101364.06;4179450;28;20232;-66
2022/12/18 02:45:49;;;;;;;52.27;18.87;;;;;;;-5.27;100.00;101367.63;4208772;28;21970;-65
2022/12/18 02:48:18;;;;;;;55.67;18.10;;;;;;;-5.27;100.00;101367.63;4199034;28;25605;-65
2022/12/18 02:50:59;;;;;;;57.23;20.50;;;;;;;-5.35;100.00;101370.31;4265439;28;20320;-66
2022/12/18 02:53:56;;;;;;;57.23;19.57;;;;;;;-5.37;100.00;101371.22;4337956;28;20705;-66
2022/12/18 02:56:33;;;;;;;53.63;19.00;;;;;;;-5.37;100.00;101384.19;4346566;28;20238;-67
2022/12/18 02:59:05;;;;;;;54.63;19.63;;;;;;;-5.36;100.00;101388.50;4273988;28;20689;-65
2022/12/18 03:01:40;;;;;;;55.97;20.20;;;;;;;-5.38;100.00;101387.69;4205807;28;25847;-67
2022/12/18 03:04:14;;;;;;;58.63;18.63;;;;;;;-5.38;100.00;101404.09;4196843;28;20232;-66
2022/12/18 03:06:44;;;;;;;55.60;18.90;;;;;;;-5.45;100.00;101405.06;4209687;28;20379;-68
2022/12/18 03:09:15;;;;;;;57.07;19.10;;;;;;;-5.35;100.00;101406.63;4213342;28;20772;-66
2022/12/18 03:14:32;;;;;;;52.73;19.10;;;;;;;-5.34;100.00;101425.66;4194785;28;20228;-64
2022/12/18 03:17:00;;;;;;;57.67;20.33;;;;;;;-5.51;100.00;101421.53;4193961;28;21025;-66
2022/12/18 03:19:29;;;;;;;49.33;19.17;;;;;;;-5.35;100.00;101422.19;4200752;28;23090;-65
2022/12/18 03:21:57;;;;;;;52.13;19.57;;;;;;;-5.33;100.00;101424.78;4193940;28;20244;-64
2022/12/18 03:24:26;;;;;;;55.33;19.90;;;;;;;-5.28;100.00;101433.38;4197610;28;20404;-65
2022/12/18 03:26:54;;;;;;;63.47;20.67;;;;;;;-5.35;100.00;101432.56;4209298;28;20323;-67
2022/12/18 03:29:24;;;;;;;58.97;20.20;;;;;;;-5.32;100.00;101440.31;4200187;28;21480;-68
2022/12/18 03:31:58;;;;;;;55.50;19.37;;;;;;;-5.31;100.00;101438.59;4205090;28;20377;-68
2022/12/18 03:34:29;;;;;;;64.20;20.57;;;;;;;-5.26;100.00;101447.16;4218222;28;20329;-66
2022/12/18 03:36:56;;;;;;;60.20;20.57;;;;;;;-5.45;100.00;101443.94;4222855;28;20237;-67
2022/12/18 03:39:24;;;;;;;59.43;20.07;;;;;;;-5.36;100.00;101440.38;4217646;28;20227;-69
2022/12/18 03:42:02;;;;;;;61.93;20.93;;;;;;;-5.35;100.00;101448.13;4218197;28;20700;-64
2022/12/18 03:44:44;;;;;;;59.23;19.17;;;;;;;-5.34;100.00;101441.22;4200818;28;21210;-65
2022/12/18 03:47:17;;;;;;;56.80;19.37;;;;;;;-5.45;99.95;101454.31;4199021;28;20238;-67
2022/12/18 03:49:48;;;;;;;56.77;18.43;;;;;;;-5.49;100.00;101456.97;4209135;28;20350;-66
2022/12/18 03:52:38;;;;;;;55.47;20.93;;;;;;;-5.44;100.00;101457.78;4197430;28;20298;-65
2022/12/18 03:55:06;;;;;;;59.10;20.20;;;;;;;-5.33;100.00;101461.09;4188002;28;21179;-65
2022/12/18 03:57:32;;;;;;;57.27;19.87;;;;;;;-5.45;99.93;101458.66;4204052;28;20479;-64
2022/12/18 04:00:03;;;;;;;54.77;18.47;;;;;;;-5.41;100.00;101460.31;4206131;28;21867;-68
2022/12/18 04:02:30;;;;;;;51.87;18.60;;;;;;;-5.51;100.00;101463.00;4194517;28;22526;-65
2022/12/18 04:05:00;;;;;;;61.87;19.63;;;;;;;-5.59;100.00;101470.03;4182234;28;21661;-66
2022/12/18 04:07:27;;;;;;;62.60;19.63;;;;;;;-5.48;100.00;101475.09;4196717;28;20415;-66
2022/12/18 04:09:55;;;;;;;55.00;19.03;;;;;;;-5.46;100.00;101481.13;4213403;28;20375;-65
2022/12/18 04:12:25;;;;;;;54.27;19.00;;;;;;;-5.57;100.00;101478.66;4193934;28;20394;-65
2022/12/18 04:14:52;;;;;;;57.77;19.47;;;;;;;-5.71;100.00;101485.72;4206272;28;20259;-65
2022/12/18 04:17:18;;;;;;;55.30;19.13;;;;;;;-5.72;100.00;101494.38;4237793;28;20356;-65
2022/12/18 04:19:45;;;;;;;57.70;19.50;;;;;;;-5.68;100.00;101500.41;4222220;28;20224;-66
2022/12/18 04:22:11;;;;;;;48.33;18.40;;;;;;;-5.69;100.00;101509.03;4213334;28;21348;-67
2022/12/18 04:24:38;;;;;;;50.93;17.67;;;;;;;-5.60;100.00;101509.78;4243307;28;20433;-65
2022/12/18 04:27:04;;;;;;;61.73;19.53;;;;;;;-5.77;100.00;101509.97;4218429;28;20953;-67
2022/12/18 04:29:31;;;;;;;51.63;18.97;;;;;;;-5.67;100.00;101505.53;4197055;28;20229;-65
2022/12/18 04:31:58;;;;;;;53.13;18.23;;;;;;;-5.77;100.00;101504.78;4188977;28;20251;-67
2022/12/18 04:34:25;;;;;;;51.20;17.50;;;;;;;-5.65;100.00;101511.56;4211540;28;20233;-70
2022/12/18 04:36:51;;;;;;;58.57;19.60;;;;;;;-5.75;100.00;101518.59;4199875;28;20230;-64
2022/12/18 04:39:18;;;;;;;54.43;18.03;;;;;;;-5.75;100.00;101526.38;4196187;28;20235;-65
2022/12/18 04:41:45;;;;;;;48.37;16.87;;;;;;;-5.79;100.00;101526.41;4193357;28;25793;-65
2022/12/18 04:44:11;;;;;;;53.57;18.33;;;;;;;-5.80;100.00;101529.88;4194228;28;20451;-69
2022/12/18 04:46:37;;;;;;;52.07;17.90;;;;;;;-6.05;100.00;101530.13;4199945;28;22392;-64
2022/12/18 04:49:04;;;;;;;46.93;16.50;;;;;;;-5.98;100.00;101529.19;4193549;28;22303;-66
2022/12/18 04:51:31;;;;;;;49.73;16.90;;;;;;;-6.01;100.00;101534.41;4191471;28;20238;-64
2022/12/18 04:53:57;;;;;;;55.80;17.53;;;;;;;-6.11;100.00;101532.78;4200176;28;20327;-66
2022/12/18 04:56:24;;;;;;;51.27;16.23;;;;;;;-6.20;100.00;101532.84;4202506;28;20342;-65
2022/12/18 04:58:50;;;;;;;47.70;17.60;;;;;;;-6.32;100.00;101535.50;4183028;28;20761;-68
2022/12/18 05:01:18;;;;;;;56.67;18.47;;;;;;;-6.21;100.00;101531.13;4203788;28;21197;-66
2022/12/18 05:03:44;;;;;;;50.20;18.40;;;;;;;-6.51;100.00;101533.03;4204742;28;20322;-70
2022/12/18 05:06:11;;;;;;;59.83;19.13;;;;;;;-6.47;100.00;101539.91;4194776;28;20237;-65
2022/12/18 05:08:38;;;;;;;55.83;18.87;;;;;;;-6.52;100.00;101546.00;4196351;28;20228;-67
2022/12/18 05:11:06;;;;;;;58.13;19.33;;;;;;;-6.47;100.00;101558.03;4203092;28;20234;-66
2022/12/18 05:13:33;;;;;;;53.03;18.57;;;;;;;-6.46;100.00;101557.19;4192030;28;20241;-66
2022/12/18 05:16:00;;;;;;;58.43;19.77;;;;;;;-6.32;100.00;101567.47;4204112;28;20378;-69
2022/12/18 05:18:27;;;;;;;61.73;18.83;;;;;;;-6.31;100.00;101570.91;4202322;28;20228;-66
2022/12/18 05:20:53;;;;;;;61.33;18.33;;;;;;;-6.44;100.00;101571.00;4201148;28;21462;-66
2022/12/18 05:23:21;;;;;;;59.13;19.33;;;;;;;-6.29;100.00;101571.75;4198859;28;21553;-65
2022/12/18 05:25:54;;;;;;;63.27;19.93;;;;;;;-6.41;100.00;101583.91;4214907;28;20238;-66
2022/12/18 05:28:21;;;;;;;61.97;19.80;;;;;;;-6.41;100.00;101591.69;4191092;28;23630;-69
2022/12/18 05:30:53;;;;;;;69.17;20.70;;;;;;;-6.30;100.00;101593.34;4204624;28;20236;-64
2022/12/18 05:33:21;;;;;;;70.00;19.17;;;;;;;-6.27;100.00;101588.16;4204974;28;20238;-66
2022/12/18 05:35:55;;;;;;;68.53;21.03;;;;;;;-6.31;100.00;101592.47;4201291;28;20441;-67
2022/12/18 05:38:22;;;;;;;63.20;19.67;;;;;;;-6.35;100.00;101598.53;4193079;28;20423;-69
2022/12/18 05:40:49;;;;;;;69.93;20.60;;;;;;;-6.30;100.00;101603.69;4197483;28;20242;-65
2022/12/18 05:43:16;;;;;;;66.47;21.17;;;;;;;-6.30;100.00;101591.59;4204503;28;21482;-67
2022/12/18 05:45:47;;;;;;;64.90;21.03;;;;;;;-6.30;100.00;101611.47;4199605;28;20298;-66
2022/12/18 05:48:14;;;;;;;63.97;21.47;;;;;;;-6.32;100.00;101605.44;4197280;28;25931;-67
2022/12/18 05:50:42;;;;;;;74.10;22.40;;;;;;;-6.28;100.00;101607.16;4204241;28;21741;-66
2022/12/18 05:53:08;;;;;;;73.97;21.53;;;;;;;-6.33;100.00;101599.41;4218982;28;25476;-66
2022/12/18 05:55:36;;;;;;;72.40;21.90;;;;;;;-6.26;100.00;101610.59;4195909;28;20391;-65
2022/12/18 05:58:04;;;;;;;78.37;21.57;;;;;;;-6.23;100.00;101608.84;4198969;28;20994;-65
2022/12/18 06:00:32;;;;;;;71.00;21.63;;;;;;;-6.19;100.00;101618.31;4206044;28;22206;-66
2022/12/18 06:02:58;;;;;;;73.00;21.37;;;;;;;-6.11;100.00;101610.50;4201542;28;20240;-67
2022/12/18 06:05:25;;;;;;;74.63;22.90;;;;;;;-6.16;100.00;101622.59;4194421;28;25404;-68
2022/12/18 06:07:52;;;;;;;77.27;23.03;;;;;;;-6.12;100.00;101624.31;4208621;28;20226;-68
2022/12/18 06:10:19;;;;;;;72.17;22.47;;;;;;;-6.00;100.00;101629.41;4200881;28;23003;-66
2022/12/18 06:12:45;;;;;;;78.30;22.53;;;;;;;-6.00;100.00;101629.41;4201655;28;20232;-67
2022/12/18 06:15:12;;;;;;;73.40;20.77;;;;;;;-5.94;100.00;101639.72;4204497;28;20223;-64
2022/12/18 06:17:40;;;;;;;70.33;21.23;;;;;;;-6.01;100.00;101647.56;4205584;28;20232;-65
2022/12/18 06:20:06;;;;;;;66.53;21.53;;;;;;;-5.98;100.00;101648.41;4199863;28;22995;-65
2022/12/18 06:22:33;;;;;;;76.87;23.87;;;;;;;-5.82;100.00;101658.63;4206723;28;20401;-65
2022/12/18 06:24:59;;;;;;;76.10;22.47;;;;;;;-5.88;100.00;101658.66;4196630;28;20319;-67
2022/12/18 06:27:26;;;;;;;79.83;22.80;;;;;;;-5.88;100.00;101669.03;4200702;28;20385;-68
2022/12/18 06:29:53;;;;;;;76.13;22.33;;;;;;;-5.85;100.00;101669.00;4202024;28;20301;-67
2022/12/18 06:32:19;;;;;;;74.80;21.67;;;;;;;-5.85;100.00;101669.00;4202686;28;20237;-64
2022/12/18 06:34:46;;;;;;;64.40;22.20;;;;;;;-5.82;100.00;101676.78;4198744;28;22198;-68
2022/12/18 06:37:12;;;;;;;78.87;23.93;;;;;;;-5.78;100.00;101681.09;4196197;28;20751;-63
2022/12/18 06:39:39;;;;;;;68.67;21.73;;;;;;;-5.83;100.00;101680.22;4201357;28;20246;-65
2022/12/18 06:42:05;;;;;;;77.47;22.47;;;;;;;-5.86;100.00;101682.84;4202155;28;20236;-67
2022/12/18 06:44:32;;;;;;;73.33;21.87;;;;;;;-5.78;100.00;101686.28;4198355;28;20228;-68
2022/12/18 06:46:59;;;;;;;75.37;23.23;;;;;;;-5.80;100.00;101693.19;4200441;28;20578;-66
2022/12/18 06:49:25;;;;;;;73.63;22.33;;;;;;;-5.90;100.00;101697.56;4199309;28;20278;-65
2022/12/18 06:51:56;;;;;;;72.97;21.47;;;;;;;-5.96;100.00;101697.63;4194155;28;20290;-65
2022/12/18 06:54:22;;;;;;;75.10;23.03;;;;;;;-5.93;100.00;101703.63;4198075;28;21084;-66
2022/12/18 06:56:49;;;;;;;70.70;22.37;;;;;;;-5.85;100.00;101715.66;4199751;28;20300;-65
2022/12/18 06:59:16;;;;;;;71.27;21.70;;;;;;;-5.73;100.00;101715.59;4195858;28;20232;-69
2022/12/18 07:01:43;;;;;;;79.23;22.97;;;;;;;-5.73;100.00;101716.47;4209713;28;20235;-66
2022/12/18 07:04:10;;;;;;;74.70;23.80;;;;;;;-5.65;100.00;101726.78;4226247;28;25660;-65
2022/12/18 07:06:36;;;;;;;68.77;22.43;;;;;;;-5.64;100.00;101718.16;4226137;28;21534;-67
2022/12/18 07:09:03;;;;;;;73.13;22.30;;;;;;;-5.50;100.00;101725.81;4218015;28;20307;-67
2022/12/18 07:11:33;;;;;;;74.90;23.97;;;;;;;-5.70;100.00;101725.94;4221192;28;21479;-68
2022/12/18 07:14:00;;;;;;;78.70;23.97;;;;;;;-5.60;100.00;101732.78;4216001;28;22535;-69
2022/12/18 07:16:30;;;;;;;79.23;23.50;;;;;;;-5.65;100.00;101733.69;4229432;28;23224;-64
2022/12/18 07:18:57;;;;;;;79.63;23.53;;;;;;;-5.60;100.00;101737.97;4225350;28;20295;-69
2022/12/18 07:21:24;;;;;;;78.83;23.07;;;;;;;-5.58;100.00;101741.41;4213175;28;20319;-68
2022/12/18 07:23:51;;;;;;;86.63;26.03;;;;;;;-5.46;100.00;101742.22;4216516;28;20228;-64
2022/12/18 07:26:20;;;;;;;78.93;25.03;;;;;;;-5.33;100.00;101749.03;4195222;28;20249;-68
2022/12/18 07:31:22;;;;;;;80.47;23.23;;;;;;;-5.34;100.00;101752.50;4253679;27;21992;-74
2022/12/18 07:33:49;;;;;;;74.50;23.27;;;;;;;-5.42;100.00;101751.69;4261047;28;20488;-75
2022/12/18 07:36:16;;;;;;;69.63;23.80;;;;;;;-5.32;100.00;101755.94;4240329;28;22107;-68
2022/12/18 07:38:43;;;;;;;78.57;23.33;;;;;;;-5.27;100.00;101764.53;4253918;28;20223;-66
2022/12/18 07:41:11;;;;;;;72.47;22.30;;;;;;;-5.12;100.00;101772.22;4250650;28;20270;-67
2022/12/18 07:43:39;;;;;;;69.03;23.03;;;;;;;-5.03;100.00;101775.59;4238554;28;20269;-67
2022/12/18 07:46:08;;;;;;;74.30;22.87;;;;;;;-5.40;100.00;101775.91;4246778;28;20242;-68
2022/12/18 07:48:35;;;;;;;68.47;22.40;;;;;;;-5.38;100.00;101781.94;4242796;28;22905;-68
2022/12/18 07:51:04;;;;;;;69.53;21.80;;;;;;;-5.33;100.00;101787.94;4232313;28;20307;-66
2022/12/18 07:53:31;;;;;;;62.73;21.40;;;;;;;-5.48;100.00;101783.72;4236298;28;20326;-67
2022/12/18 07:56:07;;;;;;;70.13;22.50;;;;;;;-5.64;100.00;101790.75;4232575;28;21687;-65
2022/12/18 07:58:54;;;;;;;71.13;22.37;;;;;;;-5.59;100.00;101791.56;4219451;28;21654;-66
2022/12/18 08:01:21;;;;;;;69.40;20.30;;;;;;;-5.55;100.00;101803.66;4226050;28;20265;-69
2022/12/18 08:03:48;;;;;;;61.17;20.57;;;;;;;-5.53;100.00;101811.41;4229159;28;21302;-66
2022/12/18 08:06:17;;;;;;;68.33;22.33;;;;;;;-5.42;100.00;101812.22;4231932;28;20321;-67
2022/12/18 08:08:44;;;;;;;67.67;22.47;;;;;;;-5.42;100.00;101819.13;4219352;28;20223;-68
2022/12/18 08:11:10;;;;;;;75.83;22.00;;;;;;;-5.52;100.00;101823.53;4226284;28;20238;-68
2022/12/18 08:13:37;;;;;;;73.27;22.03;;;;;;;-5.47;100.00;101829.53;4220430;28;21823;-63
2022/12/18 08:16:06;;;;;;;69.10;20.90;;;;;;;-5.56;100.00;101822.66;4244384;28;20963;-64
2022/12/18 08:18:34;;;;;;;69.07;22.20;;;;;;;-5.58;100.00;101824.41;4233276;28;20226;-66
2022/12/18 08:21:14;;;;;;;70.17;22.07;;;;;;;-5.38;100.00;101826.03;4222421;28;21751;-64
2022/12/18 08:23:41;;;;;;;64.23;21.63;;;;;;;-5.42;100.00;101829.50;4223313;28;20238;-64
2022/12/18 08:26:10;;;;;;;66.97;20.00;;;;;;;-5.46;100.00;101836.44;4220249;28;20243;-67
2022/12/18 08:28:37;;;;;;;61.27;21.23;;;;;;;-5.36;100.00;101839.84;4226895;28;20274;-69
2022/12/18 08:31:04;;;;;;;68.27;22.73;;;;;;;-5.64;100.00;101850.38;4235834;28;20424;-71
2022/12/18 08:33:31;;;;;;;76.03;23.53;;;;;;;-5.67;100.00;101849.50;4230973;28;20236;-66
2022/12/18 08:36:01;;;;;;;77.20;23.73;;;;;;;-5.72;100.00;101852.13;4229525;28;20231;-69
2022/12/18 08:38:27;;;;;;;68.47;22.20;;;;;;;-5.46;100.00;101853.75;4203045;28;21524;-69
2022/12/18 08:41:05;;;;;;;70.67;22.13;;;;;;;-5.38;100.00;101864.94;4233305;28;22990;-70
2022/12/18 08:46:18;;;;;;;71.93;22.33;;;;;;;-5.13;100.00;101866.53;4219390;28;23514;-66
2022/12/18 08:48:45;;;;;;;69.37;21.87;;;;;;;-5.20;100.00;101859.63;4215176;28;20467;-67
2022/12/18 08:51:12;;;;;;;75.07;22.10;;;;;;;-4.97;100.00;101866.41;4210408;28;20728;-67
2022/12/18 08:53:38;;;;;;;65.20;22.80;;;;;;;-5.16;100.00;101863.94;4223985;28;21330;-67
2022/12/18 08:56:06;;;;;;;74.73;23.60;;;;;;;-5.25;100.00;101864.00;4220676;28;20241;-67
2022/12/18 08:58:32;;;;;;;66.90;22.97;;;;;;;-5.21;100.00;101870.03;4189794;28;20244;-70
2022/12/18 09:01:03;;;;;;;74.33;24.40;;;;;;;-5.13;100.00;101871.72;4220266;28;20396;-66
2022/12/18 09:03:31;;;;;;;67.63;23.30;;;;;;;-5.41;100.00;101872.72;4225071;28;20235;-72
2022/12/18 09:05:57;;;;;;;69.43;21.53;;;;;;;-5.38;100.00;101873.59;4217920;28;20231;-67
2022/12/18 09:08:24;;;;;;;62.47;20.50;;;;;;;-5.44;100.00;101872.75;4215196;28;21255;-70
2022/12/18 09:10:51;;;;;;;76.90;24.73;;;;;;;-5.49;100.00;101879.69;4229274;28;20863;-66
2022/12/18 09:13:18;;;;;;;69.07;23.27;;;;;;;-5.36;100.00;101887.41;4223589;28;20385;-67
2022/12/18 09:15:47;;;;;;;73.33;24.17;;;;;;;-5.04;100.00;101885.50;4205033;28;20417;-66
2022/12/18 09:18:16;;;;;;;73.63;24.67;;;;;;;-4.99;100.00;101888.91;4222805;28;20331;-67
2022/12/18 09:20:43;;;;;;;81.63;26.10;;;;;;;-5.06;100.00;101895.00;4215491;28;20587;-67
2022/12/18 09:23:09;;;;;;;67.47;23.50;;;;;;;-5.34;100.00;101896.06;4231645;28;26320;-66
2022/12/18 09:25:36;;;;;;;81.17;26.67;;;;;;;-5.24;100.00;101891.69;4206639;28;21303;-64
2022/12/18 09:28:09;;;;;;;77.73;26.27;;;;;;;-5.22;100.00;101887.34;4225940;28;20560;-69
2022/12/18 09:30:40;;;;;;;72.07;25.70;;;;;;;-5.43;100.00;101895.22;4213129;28;20232;-68
2022/12/18 09:33:06;;;;;;;78.80;26.93;;;;;;;-5.44;100.00;101886.56;4288536;28;20354;-68
2022/12/18 09:35:36;;;;;;;81.33;27.40;;;;;;;-5.49;100.00;101900.44;4231017;28;20240;-67
2022/12/18 09:38:03;;;;;;;89.80;27.77;;;;;;;-5.36;100.00;101900.38;4244607;28;20278;-68
2022/12/18 09:40:36;;;;;;;76.27;28.07;;;;;;;-5.17;100.00;101887.31;4251241;28;20285;-68
2022/12/18 09:43:05;;;;;;;80.20;26.63;;;;;;;-5.23;100.00;101893.38;4209325;28;21622;-67
2022/12/18 09:45:49;;;;;;;72.03;24.87;;;;;;;-5.31;100.00;101896.03;4277202;28;22295;-67
2022/12/18 09:48:24;;;;;;;74.80;26.60;;;;;;;-5.44;100.00;101893.50;4306881;28;20407;-67
2022/12/18 09:50:51;;;;;;;68.83;24.50;;;;;;;-5.43;100.00;101896.09;4208558;28;20278;-67
2022/12/18 09:53:25;;;;;;;80.80;27.27;;;;;;;-5.34;100.00;101896.06;4203923;28;21095;-67
2022/12/18 09:55:53;;;;;;;73.67;26.73;;;;;;;-5.38;100.00;101904.72;4211787;28;20245;-67
2022/12/18 09:58:44;;;;;;;70.70;25.70;;;;;;;-5.28;100.00;101902.94;4227052;28;21874;-67
2022/12/18 10:01:13;;;;;;;76.40;26.03;;;;;;;-5.40;100.00;101898.66;4241606;28;20232;-67
2022/12/18 10:03:40;;;;;;;74.63;25.53;;;;;;;-5.35;100.00;101904.69;4231745;28;21152;-70
2022/12/18 10:06:21;;;;;;;84.97;26.10;;;;;;;-5.28;100.00;101915.91;4232176;28;27300;-68
2022/12/18 10:09:13;;;;;;;81.70;27.83;;;;;;;-5.28;100.00;101922.84;4210882;28;21519;-70
2022/12/18 10:12:11;;;;;;;77.87;26.17;;;;;;;-5.10;100.00;101921.00;4256068;28;20414;-68
2022/12/18 10:14:52;;;;;;;81.60;26.37;;;;;;;-5.20;100.00;101921.91;4280672;28;20306;-69
2022/12/18 10:17:41;;;;;;;86.53;27.53;;;;;;;-5.19;100.00;101930.56;4212501;28;21304;-65
2022/12/18 10:20:19;;;;;;;87.20;28.00;;;;;;;-5.06;100.00;101923.56;4227335;28;20296;-66
2022/12/18 10:23:01;;;;;;;90.97;28.50;;;;;;;-5.01;100.00;101927.00;4218328;28;20714;-70
2022/12/18 10:25:29;;;;;;;87.20;29.20;;;;;;;-5.07;100.00;101927.03;4233420;28;20339;-66
2022/12/18 10:27:58;;;;;;;86.00;29.97;;;;;;;-4.79;100.00;101927.75;4207710;28;20223;-71
2022/12/18 10:30:25;;;;;;;93.10;29.97;;;;;;;-4.72;100.00;101916.44;4242178;28;20243;-68
2022/12/18 10:32:52;;;;;;;94.83;30.57;;;;;;;-4.79;100.00;101913.00;4211109;28;20241;-67
2022/12/18 10:35:22;;;;;;;90.10;29.63;;;;;;;-4.91;100.00;101923.50;4234668;28;20835;-66
2022/12/18 10:38:22;;;;;;;98.87;30.40;;;;;;;-4.89;100.00;101913.97;4271020;28;20309;-68
2022/12/18 10:40:53;;;;;;;100.30;30.43;;;;;;;-4.89;100.00;101920.00;4213729;28;21000;-65
2022/12/18 10:43:26;;;;;;;93.83;29.10;;;;;;;-4.82;100.00;101910.44;4221544;28;21471;-66
2022/12/18 10:46:07;;;;;;;100.10;30.43;;;;;;;-4.73;100.00;101906.91;4207005;28;20236;-68
2022/12/18 10:48:47;;;;;;;99.00;30.30;;;;;;;-4.64;100.00;101908.56;4246267;28;20227;-66
2022/12/18 10:51:36;;;;;;;82.40;27.43;;;;;;;-4.38;100.00;101906.59;4204532;28;20966;-65
2022/12/18 10:54:14;;;;;;;95.83;31.27;;;;;;;-4.15;100.00;101915.94;4219325;28;20330;-66
2022/12/18 10:56:41;;;;;;;85.43;28.70;;;;;;;-4.09;100.00;101926.28;4235519;28;21982;-67
2022/12/18 10:59:11;;;;;;;91.03;30.30;;;;;;;-4.12;98.85;101926.31;4218546;28;20236;-65
2022/12/18 11:01:53;;;;;;;89.77;29.00;;;;;;;-3.96;98.99;101922.66;4259527;28;20221;-67
2022/12/18 11:04:23;;;;;;;88.00;27.57;;;;;;;-3.89;98.67;101924.31;4238691;28;22158;-70
2022/12/18 11:06:55;;;;;;;86.73;29.97;;;;;;;-4.22;98.83;101927.28;4213723;28;20225;-68
2022/12/18 11:09:24;;;;;;;92.43;29.73;;;;;;;-4.05;99.64;101921.06;4223186;28;22256;-67
2022/12/18 11:11:53;;;;;;;96.90;31.30;;;;;;;-4.15;99.56;101919.41;4227307;28;21259;-64
2022/12/18 11:14:25;;;;;;;93.27;29.53;;;;;;;-4.00;99.24;101917.53;4213807;28;20772;-67
2022/12/18 11:16:55;;;;;;;92.43;29.70;;;;;;;-3.94;98.16;101923.53;4211973;28;20325;-66
2022/12/18 11:19:41;;;;;;;93.37;30.77;;;;;;;-3.92;98.08;101916.56;4209212;28;20241;-67
2022/12/18 11:22:24;;;;;;;90.57;28.20;;;;;;;-3.91;97.77;101922.63;4211133;28;20417;-64
2022/12/18 11:24:57;;;;;;;79.87;27.57;;;;;;;-3.83;97.17;101923.41;4215954;28;20506;-67
2022/12/18 11:28:25;;;;;;;91.80;30.10;;;;;;;-3.84;96.20;101930.38;4219901;28;20239;-68